Terminal Aerodrome Forecast
Issued by NWS

Home | Current Version | Previous Version | Text Only | Print | Product List | Glossary Off
Versions: 1 2 3 4 5 6 7 8 9 10 11 12 13 14 15

977
FTUS43 KICT 082328
TAFCNU
TAF
KCNU 082328Z 0900/0924 32017G24KT P6SM SCT040
     FM090600 31012G20KT P6SM SCT200
     FM091600 33019G27KT P6SM SCT250=

USA.gov is the U.S. government's official web portal to all federal, state and local government web resources and services.